Terminal Aerodrome Forecast
Issued by NWS Mt. Holly, NJ

Home | Current Version | Previous Version | Text Only | Print | Product List | Glossary On
Versions: 1 2 3 4 5 6 7 8 9 10 11 12 13 14 15 16 17 18 19 20 21 22 23 24 25 26 27 28
000
FTUS41 KPHI 230420 AAA
TAFABE
TAF AMD
KABE 230420Z 2304/2324 12003KT P6SM BKN010
     FM230900 00000KT 4SM BR BKN007
     FM231000 00000KT 2SM BR BKN007 OVC024
     FM231300 VRB03KT 5SM BR SCT007 BKN025
     FM231400 13004KT P6SM SCT007 BKN020
     FM232000 15009KT P6SM BKN035=

USA.gov is the U.S. government's official web portal to all federal, state and local government web resources and services.